PWSweather.com
Personal Weather Stations
Station Observations
WHAKATANE1
Whakatane, WhakataneNZ

WhakataneWhakataneNZ

Lat: -37.960954, Lon: 176.9768

Elevation: 10

Station Type: Lacrosse

Latest ConditionsUpdated 11:40:00 AM GMT+12:12 Tuesday, Sep 1, 2015
Currently Today's Max Today's Min Today's Average
Temperature 54.3°F12.4°C 54.3°F12.4°C 49.5°F9.7°C 51.1°F10.6°C
Dew Point 54.1°F12.3°C 54.1°F12.3°C 47.8°F8.8°C 49.8°F9.9°C
Winds 17.1 mph SSW27.5 kmh SSW 17.1 mph SSW27.5 kmh SSW - 5.8 mph 9.3 kmh
Wind Gusts 20.6 mph33.2 kmh 27.3 mph43.9 kmh - -
Humidity 99% 99% 88% 95%
Pressure 30.04 in1017.3 mb 30.14 in1020.7 mb 30.04 in1017.3 mb -
Precipitation - 0.21 in5.3 mm - -
Hour Temp Dew Point Humidity Winds Wind Gusts Pressure Precip Precip Rate Daily Precip Total
11:40 AM 54.3°F12.4°C 54.1°F12.3°C 99% 17.1 mph SSW27.5 kmh SSW 20.6 mph33.2 kmh 30.04 in1017.3 mb 0.08 in2.0 mm 0.12 in3.0 mm 0.21 in5.3 mm
11:35 AM 54.1°F12.3°C 53.9°F12.2°C 99% 15.7 mph SSW25.3 kmh SSW 19.7 mph31.7 kmh 30.04 in1017.3 mb 0.07 in1.8 mm 0.00 in0.0 mm 0.20 in5.1 mm
11:30 AM 54.1°F12.3°C 53.9°F12.2°C 99% 15.7 mph SSW25.3 kmh SSW 22.8 mph36.7 kmh 30.04 in1017.3 mb 0.08 in2.0 mm 0.12 in3.0 mm 0.20 in5.1 mm
11:25 AM 54.1°F12.3°C 53.9°F12.2°C 99% 16.7 mph SSW26.9 kmh SSW 22.8 mph36.7 kmh 30.05 in1017.6 mb 0.07 in1.8 mm 0.00 in0.0 mm 0.19 in4.8 mm
11:20 AM 54.1°F12.3°C 53.9°F12.2°C 99% 16.8 mph SW27.0 kmh SW 22.8 mph36.7 kmh 30.06 in1017.9 mb 0.08 in2.0 mm 0.12 in3.0 mm 0.19 in4.8 mm
11:15 AM 54.1°F12.3°C 53.9°F12.2°C 99% 15.6 mph S25.1 kmh S 21.3 mph34.3 kmh 30.05 in1017.6 mb 0.07 in1.8 mm 0.00 in0.0 mm 0.18 in4.6 mm
11:10 AM 54.3°F12.4°C 54.1°F12.3°C 99% 16.9 mph S27.2 kmh S 27.3 mph43.9 kmh 30.05 in1017.6 mb 0.07 in1.8 mm 0.12 in3.0 mm 0.18 in4.6 mm
11:05 AM 54.1°F12.3°C 53.9°F12.2°C 99% 17.0 mph S27.4 kmh S 27.3 mph43.9 kmh 30.06 in1017.9 mb 0.06 in1.5 mm 0.00 in0.0 mm 0.17 in4.3 mm
11:00 AM 53.8°F12.1°C 53.5°F11.9°C 99% 14.4 mph S23.2 kmh S 19.0 mph30.6 kmh 30.06 in1017.9 mb 0.07 in1.8 mm 0.01 in0.3 mm 0.17 in4.3 mm
10:55 AM 53.6°F12.0°C 53.1°F11.7°C 98% 12.9 mph S20.8 kmh S 19.0 mph30.6 kmh 30.06 in1017.9 mb 0.06 in1.5 mm 0.00 in0.0 mm 0.15 in3.8 mm
10:50 AM 53.4°F11.9°C 52.9°F11.6°C 98% 12.5 mph S20.1 kmh S 17.4 mph28.0 kmh 30.06 in1017.9 mb 0.07 in1.8 mm 0.12 in3.0 mm 0.15 in3.8 mm
10:45 AM 53.2°F11.8°C 52.4°F11.3°C 97% 10.9 mph S17.5 kmh S 17.4 mph28.0 kmh 30.06 in1017.9 mb 0.06 in1.5 mm 0.00 in0.0 mm 0.14 in3.6 mm
10:40 AM 53.1°F11.7°C 52.0°F11.1°C 96% 10.4 mph SW16.7 kmh SW 13.6 mph21.9 kmh 30.06 in1017.9 mb 0.06 in1.5 mm 0.00 in0.0 mm 0.13 in3.3 mm
10:35 AM 53.1°F11.7°C 51.7°F10.9°C 95% 11.7 mph SW18.8 kmh SW 14.5 mph23.3 kmh 30.06 in1017.9 mb 0.06 in1.5 mm 0.12 in3.0 mm 0.13 in3.3 mm
10:30 AM 53.1°F11.7°C 51.7°F10.9°C 95% 11.7 mph SW18.8 kmh SW 14.5 mph23.3 kmh 30.07 in1018.3 mb 0.05 in1.3 mm 0.00 in0.0 mm 0.12 in3.0 mm
10:25 AM 53.1°F11.7°C 51.4°F10.8°C 94% 11.1 mph SW17.9 kmh SW 13.6 mph21.9 kmh 30.07 in1018.3 mb 0.05 in1.3 mm 0.12 in3.0 mm 0.12 in3.0 mm
10:20 AM 53.1°F11.7°C 51.4°F10.8°C 94% 11.2 mph SW18.0 kmh SW 15.9 mph25.6 kmh 30.07 in1018.3 mb 0.04 in1.0 mm 0.00 in0.0 mm 0.11 in2.8 mm
10:15 AM 52.9°F11.6°C 51.2°F10.7°C 94% 11.5 mph SW18.5 kmh SW 15.9 mph25.6 kmh 30.07 in1018.3 mb 0.04 in1.0 mm 0.00 in0.0 mm 0.11 in2.8 mm
10:10 AM 52.9°F11.6°C 50.9°F10.5°C 93% 10.3 mph SW16.6 kmh SW 15.2 mph24.5 kmh 30.07 in1018.3 mb 0.04 in1.0 mm 0.00 in0.0 mm 0.11 in2.8 mm
10:05 AM 52.9°F11.6°C 50.6°F10.3°C 92% 8.4 mph SW13.5 kmh SW 12.1 mph19.5 kmh 30.07 in1018.3 mb 0.04 in1.0 mm 0.24 in6.1 mm 0.11 in2.8 mm
10:00 AM 52.9°F11.6°C 50.6°F10.3°C 92% 7.9 mph SW12.7 kmh SW 11.4 mph18.3 kmh 30.09 in1019.0 mb 0.02 in0.5 mm 0.00 in0.0 mm 0.09 in2.3 mm
09:55 AM 53.1°F11.7°C 50.5°F10.3°C 91% 8.3 mph SW13.4 kmh SW 11.4 mph18.3 kmh 30.08 in1018.6 mb 0.02 in0.5 mm 0.12 in3.0 mm 0.09 in2.3 mm
09:50 AM 53.2°F11.8°C 50.7°F10.4°C 91% 8.0 mph SW12.9 kmh SW 11.4 mph18.3 kmh 30.08 in1018.6 mb 0.01 in0.3 mm 0.00 in0.0 mm 0.08 in2.0 mm
09:45 AM 53.4°F11.9°C 50.9°F10.5°C 91% 7.8 mph SW12.6 kmh SW 13.6 mph21.9 kmh 30.09 in1019.0 mb 0.01 in0.3 mm 0.12 in3.0 mm 0.08 in2.0 mm
09:40 AM 53.4°F11.9°C 50.9°F10.5°C 91% 7.7 mph SW12.4 kmh SW 13.6 mph21.9 kmh 30.09 in1019.0 mb 0.00 in0.0 mm 0.00 in0.0 mm 0.07 in1.8 mm
09:35 AM 53.4°F11.9°C 51.2°F10.7°C 92% 6.5 mph SW10.5 kmh SW 10.7 mph17.2 kmh 30.08 in1018.6 mb 0.00 in0.0 mm 0.00 in0.0 mm 0.07 in1.8 mm
09:30 AM 53.2°F11.8°C 51.0°F10.6°C 92% 5.3 mph SW8.5 kmh SW 7.6 mph12.2 kmh 30.09 in1019.0 mb 0.00 in0.0 mm 0.00 in0.0 mm 0.07 in1.8 mm
09:25 AM 53.2°F11.8°C 51.3°F10.7°C 93% 5.3 mph SW8.5 kmh SW 8.3 mph13.4 kmh 30.09 in1019.0 mb 0.00 in0.0 mm 0.00 in0.0 mm 0.07 in1.8 mm
09:20 AM 52.9°F11.6°C 50.9°F10.5°C 93% 5.8 mph SW9.3 kmh SW 8.3 mph13.4 kmh 30.09 in1019.0 mb 0.00 in0.0 mm 0.00 in0.0 mm 0.07 in1.8 mm
09:15 AM 52.7°F11.5°C 51.0°F10.6°C 94% 6.4 mph SW10.3 kmh SW 9.8 mph15.8 kmh 30.09 in1019.0 mb 0.01 in0.3 mm 0.00 in0.0 mm 0.07 in1.8 mm
09:10 AM 52.3°F11.3°C 50.7°F10.4°C 94% 6.5 mph SW10.5 kmh SW 9.8 mph15.8 kmh 30.09 in1019.0 mb 0.01 in0.3 mm 0.00 in0.0 mm 0.07 in1.8 mm
09:05 AM 52.2°F11.2°C 50.8°F10.4°C 95% 6.2 mph SW10.0 kmh SW 8.3 mph13.4 kmh 30.09 in1019.0 mb 0.01 in0.3 mm 0.00 in0.0 mm 0.07 in1.8 mm
09:00 AM 51.8°F11.0°C 50.4°F10.2°C 95% 6.2 mph SW10.0 kmh SW 8.3 mph13.4 kmh 30.10 in1019.3 mb 0.01 in0.3 mm 0.00 in0.0 mm 0.07 in1.8 mm
08:55 AM 51.6°F10.9°C 50.2°F10.1°C 95% 5.7 mph SW9.2 kmh SW 6.9 mph11.1 kmh 30.10 in1019.3 mb 0.01 in0.3 mm 0.00 in0.0 mm 0.07 in1.8 mm
08:50 AM 51.6°F10.9°C 50.2°F10.1°C 95% 5.9 mph SW9.5 kmh SW 7.6 mph12.2 kmh 30.10 in1019.3 mb 0.01 in0.3 mm 0.00 in0.0 mm 0.07 in1.8 mm
08:45 AM 51.6°F10.9°C 50.2°F10.1°C 95% 6.9 mph SW11.1 kmh SW 9.8 mph15.8 kmh 30.10 in1019.3 mb 0.01 in0.3 mm 0.00 in0.0 mm 0.07 in1.8 mm
08:40 AM 51.6°F10.9°C 50.0°F10.0°C 94% 7.5 mph SW12.1 kmh SW 9.8 mph15.8 kmh 30.10 in1019.3 mb 0.01 in0.3 mm 0.00 in0.0 mm 0.07 in1.8 mm
08:35 AM 51.6°F10.9°C 50.0°F10.0°C 94% 8.2 mph SW13.2 kmh SW 13.0 mph20.9 kmh 30.11 in1019.6 mb 0.01 in0.3 mm 0.00 in0.0 mm 0.07 in1.8 mm
08:30 AM 51.6°F10.9°C 50.0°F10.0°C 94% 7.3 mph SW11.7 kmh SW 13.0 mph20.9 kmh 30.11 in1019.6 mb 0.01 in0.3 mm 0.00 in0.0 mm 0.07 in1.8 mm
08:25 AM 51.6°F10.9°C 50.0°F10.0°C 94% 6.1 mph SW9.8 kmh SW 7.6 mph12.2 kmh 30.10 in1019.3 mb 0.01 in0.3 mm 0.12 in3.0 mm 0.07 in1.8 mm
08:20 AM 51.6°F10.9°C 50.2°F10.1°C 95% 5.6 mph SW9.0 kmh SW 7.6 mph12.2 kmh 30.11 in1019.6 mb 0.00 in0.0 mm 0.00 in0.0 mm 0.06 in1.5 mm
08:15 AM 51.4°F10.8°C 50.1°F10.1°C 95% 5.6 mph SW9.0 kmh SW 7.6 mph12.2 kmh 30.11 in1019.6 mb 0.00 in0.0 mm 0.00 in0.0 mm 0.06 in1.5 mm
08:10 AM 51.4°F10.8°C 50.1°F10.1°C 95% 6.1 mph SW9.8 kmh SW 9.8 mph15.8 kmh 30.11 in1019.6 mb 0.00 in0.0 mm 0.00 in0.0 mm 0.06 in1.5 mm
08:05 AM 51.3°F10.7°C 50.2°F10.1°C 96% 6.4 mph SW10.3 kmh SW 10.7 mph17.2 kmh 30.11 in1019.6 mb 0.00 in0.0 mm 0.00 in0.0 mm 0.06 in1.5 mm
08:00 AM 51.1°F10.6°C 50.0°F10.0°C 96% 6.0 mph WSW9.7 kmh WSW 10.7 mph17.2 kmh 30.10 in1019.3 mb 0.00 in0.0 mm 0.00 in0.0 mm 0.06 in1.5 mm
07:55 AM 50.9°F10.5°C 50.1°F10.1°C 97% 5.7 mph WSW9.2 kmh WSW 6.0 mph9.7 kmh 30.11 in1019.6 mb 0.00 in0.0 mm 0.00 in0.0 mm 0.06 in1.5 mm
07:50 AM 50.7°F10.4°C 49.9°F9.9°C 97% 6.0 mph WSW9.7 kmh WSW 9.2 mph14.8 kmh 30.11 in1019.6 mb 0.00 in0.0 mm 0.00 in0.0 mm 0.06 in1.5 mm
07:45 AM 50.5°F10.3°C 49.7°F9.8°C 97% 6.0 mph W9.7 kmh W 9.2 mph14.8 kmh 30.11 in1019.6 mb 0.00 in0.0 mm 0.00 in0.0 mm 0.06 in1.5 mm
07:40 AM 50.4°F10.2°C 49.8°F9.9°C 98% 5.6 mph W9.0 kmh W 8.3 mph13.4 kmh 30.11 in1019.6 mb 0.00 in0.0 mm 0.00 in0.0 mm 0.06 in1.5 mm
07:35 AM 50.0°F10.0°C 49.5°F9.7°C 98% 5.0 mph W8.0 kmh W 8.3 mph13.4 kmh 30.11 in1019.6 mb 0.00 in0.0 mm 0.00 in0.0 mm 0.06 in1.5 mm
07:30 AM 50.2°F10.1°C 49.6°F9.8°C 98% 4.6 mph W7.4 kmh W 7.6 mph12.2 kmh 30.11 in1019.6 mb 0.00 in0.0 mm 0.00 in0.0 mm 0.06 in1.5 mm
07:25 AM 50.0°F10.0°C 49.7°F9.8°C 99% 3.7 mph W6.0 kmh W 7.6 mph12.2 kmh 30.11 in1019.6 mb 0.00 in0.0 mm 0.00 in0.0 mm 0.06 in1.5 mm
07:20 AM 50.0°F10.0°C 49.7°F9.8°C 99% 3.5 mph W5.6 kmh W 6.0 mph9.7 kmh 30.11 in1019.6 mb 0.00 in0.0 mm 0.00 in0.0 mm 0.06 in1.5 mm
07:15 AM 50.0°F10.0°C 49.7°F9.8°C 99% 4.3 mph W6.9 kmh W 6.0 mph9.7 kmh 30.11 in1019.6 mb 0.00 in0.0 mm 0.00 in0.0 mm 0.06 in1.5 mm
07:10 AM 49.8°F9.9°C 49.6°F9.8°C 99% 5.5 mph W8.9 kmh W 9.8 mph15.8 kmh 30.10 in1019.3 mb 0.00 in0.0 mm 0.00 in0.0 mm 0.06 in1.5 mm
07:05 AM 49.8°F9.9°C 49.6°F9.8°C 99% 6.0 mph W9.7 kmh W 9.8 mph15.8 kmh 30.10 in1019.3 mb 0.00 in0.0 mm 0.00 in0.0 mm 0.06 in1.5 mm
07:00 AM 49.6°F9.8°C 49.4°F9.7°C 99% 6.1 mph W9.8 kmh W 9.8 mph15.8 kmh 30.10 in1019.3 mb 0.01 in0.3 mm 0.00 in0.0 mm 0.06 in1.5 mm
06:55 AM 49.6°F9.8°C 49.4°F9.7°C 99% 5.3 mph W8.5 kmh W 9.8 mph15.8 kmh 30.10 in1019.3 mb 0.01 in0.3 mm 0.00 in0.0 mm 0.06 in1.5 mm
06:50 AM 49.6°F9.8°C 49.4°F9.7°C 99% 4.6 mph W7.4 kmh W 6.0 mph9.7 kmh 30.11 in1019.6 mb 0.01 in0.3 mm 0.00 in0.0 mm 0.06 in1.5 mm
06:45 AM 49.5°F9.7°C 49.2°F9.6°C 99% 4.6 mph W7.4 kmh W 6.0 mph9.7 kmh 30.10 in1019.3 mb 0.02 in0.5 mm 0.00 in0.0 mm 0.06 in1.5 mm
06:40 AM 49.5°F9.7°C 49.2°F9.6°C 99% 4.7 mph W7.6 kmh W 7.6 mph12.2 kmh 30.10 in1019.3 mb 0.02 in0.5 mm 0.00 in0.0 mm 0.06 in1.5 mm
06:35 AM 49.5°F9.7°C 49.2°F9.6°C 99% 5.3 mph W8.5 kmh W 8.3 mph13.4 kmh 30.11 in1019.6 mb 0.02 in0.5 mm 0.00 in0.0 mm 0.06 in1.5 mm
06:30 AM 49.5°F9.7°C 49.2°F9.6°C 99% 5.3 mph W8.5 kmh W 8.3 mph13.4 kmh 30.10 in1019.3 mb 0.02 in0.5 mm 0.00 in0.0 mm 0.06 in1.5 mm
06:25 AM 49.5°F9.7°C 49.2°F9.6°C 99% 4.8 mph W7.7 kmh W 7.6 mph12.2 kmh 30.10 in1019.3 mb 0.04 in1.0 mm 0.00 in0.0 mm 0.06 in1.5 mm
06:20 AM 49.5°F9.7°C 49.2°F9.6°C 99% 4.6 mph W7.4 kmh W 6.0 mph9.7 kmh 30.10 in1019.3 mb 0.04 in1.0 mm 0.00 in0.0 mm 0.06 in1.5 mm
06:15 AM 49.5°F9.7°C 49.2°F9.6°C 99% 4.9 mph W7.9 kmh W 7.6 mph12.2 kmh 30.10 in1019.3 mb 0.04 in1.0 mm 0.00 in0.0 mm 0.06 in1.5 mm
06:10 AM 49.5°F9.7°C 49.2°F9.6°C 99% 5.3 mph W8.5 kmh W 9.8 mph15.8 kmh 30.10 in1019.3 mb 0.04 in1.0 mm 0.00 in0.0 mm 0.06 in1.5 mm
06:05 AM 49.5°F9.7°C 49.2°F9.6°C 99% 5.2 mph W8.4 kmh W 9.8 mph15.8 kmh 30.10 in1019.3 mb 0.04 in1.0 mm 0.24 in6.1 mm 0.06 in1.5 mm
06:00 AM 49.5°F9.7°C 49.2°F9.6°C 99% 4.9 mph W7.9 kmh W 6.9 mph11.1 kmh 30.10 in1019.3 mb 0.02 in0.5 mm 0.00 in0.0 mm 0.05 in1.3 mm
05:55 AM 49.5°F9.7°C 49.2°F9.6°C 99% 4.3 mph W6.9 kmh W 6.0 mph9.7 kmh 30.10 in1019.3 mb 0.02 in0.5 mm 0.00 in0.0 mm 0.05 in1.3 mm
05:50 AM 49.5°F9.7°C 49.2°F9.6°C 99% 4.3 mph W6.9 kmh W 6.9 mph11.1 kmh 30.10 in1019.3 mb 0.02 in0.5 mm 0.12 in3.0 mm 0.05 in1.3 mm
05:45 AM 49.5°F9.7°C 48.9°F9.4°C 98% 4.1 mph W6.6 kmh W 6.9 mph11.1 kmh 30.10 in1019.3 mb 0.01 in0.3 mm 0.00 in0.0 mm 0.04 in1.0 mm
05:40 AM 49.5°F9.7°C 48.9°F9.4°C 98% 4.2 mph W6.8 kmh W 9.2 mph14.8 kmh 30.11 in1019.6 mb 0.01 in0.3 mm 0.00 in0.0 mm 0.04 in1.0 mm
05:35 AM 49.5°F9.7°C 48.9°F9.4°C 98% 4.7 mph W7.6 kmh W 9.2 mph14.8 kmh 30.11 in1019.6 mb 0.01 in0.3 mm 0.00 in0.0 mm 0.04 in1.0 mm
05:30 AM 49.5°F9.7°C 48.9°F9.4°C 98% 3.9 mph W6.3 kmh W 5.4 mph8.7 kmh 30.10 in1019.3 mb 0.01 in0.3 mm 0.00 in0.0 mm 0.04 in1.0 mm
05:25 AM 49.5°F9.7°C 48.9°F9.4°C 98% 3.7 mph W6.0 kmh W 5.4 mph8.7 kmh 30.11 in1019.6 mb 0.01 in0.3 mm 0.00 in0.0 mm 0.02 in0.5 mm
05:20 AM 49.5°F9.7°C 48.9°F9.4°C 98% 4.4 mph W7.1 kmh W 6.0 mph9.7 kmh 30.11 in1019.6 mb 0.01 in0.3 mm 0.00 in0.0 mm 0.02 in0.5 mm
05:15 AM 49.5°F9.7°C 48.9°F9.4°C 98% 5.4 mph W8.7 kmh W 6.9 mph11.1 kmh 30.11 in1019.6 mb 0.01 in0.3 mm 0.00 in0.0 mm 0.02 in0.5 mm
05:10 AM 49.5°F9.7°C 48.6°F9.2°C 97% 4.2 mph W6.8 kmh W 6.9 mph11.1 kmh 30.11 in1019.6 mb 0.01 in0.3 mm 0.00 in0.0 mm 0.02 in0.5 mm
05:05 AM 49.5°F9.7°C 48.6°F9.2°C 97% 2.7 mph W4.3 kmh W 6.9 mph11.1 kmh 30.11 in1019.6 mb 0.02 in0.5 mm 0.00 in0.0 mm 0.02 in0.5 mm
05:00 AM 49.5°F9.7°C 48.6°F9.2°C 97% 2.8 mph W4.5 kmh W 4.5 mph7.2 kmh 30.11 in1019.6 mb 0.02 in0.5 mm 0.00 in0.0 mm 0.02 in0.5 mm
04:55 AM 49.5°F9.7°C 48.4°F9.1°C 96% 3.1 mph W5.0 kmh W 4.5 mph7.2 kmh 30.11 in1019.6 mb 0.02 in0.5 mm 0.00 in0.0 mm 0.02 in0.5 mm
04:50 AM 49.5°F9.7°C 48.4°F9.1°C 96% 3.5 mph W5.6 kmh W 5.4 mph8.7 kmh 30.11 in1019.6 mb 0.02 in0.5 mm 0.00 in0.0 mm 0.02 in0.5 mm
04:45 AM 49.6°F9.8°C 48.5°F9.2°C 96% 3.3 mph W5.3 kmh W 5.4 mph8.7 kmh 30.11 in1019.6 mb 0.02 in0.5 mm 0.00 in0.0 mm 0.02 in0.5 mm
04:40 AM 49.6°F9.8°C 48.3°F9.1°C 95% 3.2 mph W5.1 kmh W 5.4 mph8.7 kmh 30.11 in1019.6 mb 0.02 in0.5 mm 0.00 in0.0 mm 0.02 in0.5 mm
04:35 AM 49.8°F9.9°C 48.4°F9.1°C 95% 3.4 mph W5.5 kmh W 5.4 mph8.7 kmh 30.12 in1020.0 mb 0.02 in0.5 mm 0.00 in0.0 mm 0.02 in0.5 mm
04:30 AM 49.8°F9.9°C 48.2°F9.0°C 94% 3.3 mph W5.3 kmh W 5.4 mph8.7 kmh 30.12 in1020.0 mb 0.02 in0.5 mm 0.12 in3.0 mm 0.02 in0.5 mm
04:25 AM 50.0°F10.0°C 48.3°F9.1°C 94% 3.8 mph W6.1 kmh W 6.0 mph9.7 kmh 30.11 in1019.6 mb 0.01 in0.3 mm 0.00 in0.0 mm 0.01 in0.3 mm
04:20 AM 50.2°F10.1°C 48.2°F9.0°C 93% 3.8 mph W6.1 kmh W 6.0 mph9.7 kmh 30.12 in1020.0 mb 0.01 in0.3 mm 0.00 in0.0 mm 0.01 in0.3 mm
04:15 AM 50.2°F10.1°C 48.2°F9.0°C 93% 3.0 mph W4.8 kmh W 5.4 mph8.7 kmh 30.11 in1019.6 mb 0.01 in0.3 mm 0.00 in0.0 mm 0.01 in0.3 mm
04:10 AM 50.2°F10.1°C 48.0°F8.9°C 92% 3.0 mph W4.8 kmh W 4.5 mph7.2 kmh 30.11 in1019.6 mb 0.01 in0.3 mm 0.12 in3.0 mm 0.01 in0.3 mm
04:05 AM 50.4°F10.2°C 48.1°F8.9°C 92% 3.3 mph W5.3 kmh W 5.4 mph8.7 kmh 30.11 in1019.6 mb 0.00 in0.0 mm 0.00 in0.0 mm 0.00 in0.0 mm
04:00 AM 50.5°F10.3°C 48.0°F8.9°C 91% 3.2 mph W5.1 kmh W 5.4 mph8.7 kmh 30.11 in1019.6 mb 0.00 in0.0 mm 0.00 in0.0 mm 0.00 in0.0 mm
03:55 AM 50.5°F10.3°C 48.0°F8.9°C 91% 3.3 mph W5.3 kmh W 4.5 mph7.2 kmh 30.11 in1019.6 mb 0.00 in0.0 mm 0.00 in0.0 mm 0.00 in0.0 mm
03:50 AM 50.7°F10.4°C 47.9°F8.8°C 90% 3.2 mph W5.1 kmh W 4.5 mph7.2 kmh 30.11 in1019.6 mb 0.00 in0.0 mm 0.00 in0.0 mm 0.00 in0.0 mm
03:45 AM 50.7°F10.4°C 47.9°F8.8°C 90% 2.2 mph W3.5 kmh W 4.5 mph7.2 kmh 30.11 in1019.6 mb 0.00 in0.0 mm 0.00 in0.0 mm 0.00 in0.0 mm
03:40 AM 50.9°F10.5°C 47.8°F8.8°C 89% 1.9 mph W3.1 kmh W 3.1 mph5.0 kmh 30.11 in1019.6 mb 0.00 in0.0 mm 0.00 in0.0 mm 0.00 in0.0 mm
03:35 AM 51.1°F10.6°C 48.0°F8.9°C 89% 2.8 mph W4.5 kmh W 4.5 mph7.2 kmh 30.11 in1019.6 mb 0.00 in0.0 mm 0.00 in0.0 mm 0.00 in0.0 mm
03:30 AM 51.3°F10.7°C 48.1°F8.9°C 89% 3.4 mph W5.5 kmh W 6.0 mph9.7 kmh 30.11 in1019.6 mb 0.00 in0.0 mm 0.00 in0.0 mm 0.00 in0.0 mm
03:25 AM 51.3°F10.7°C 47.8°F8.8°C 88% 3.5 mph W5.6 kmh W 6.0 mph9.7 kmh 30.11 in1019.6 mb 0.00 in0.0 mm 0.00 in0.0 mm 0.00 in0.0 mm
03:20 AM 51.3°F10.7°C 47.8°F8.8°C 88% 5.0 mph W8.0 kmh W 8.3 mph13.4 kmh 30.11 in1019.6 mb 0.00 in0.0 mm 0.00 in0.0 mm 0.00 in0.0 mm
03:15 AM 51.3°F10.7°C 47.8°F8.8°C 88% 4.8 mph W7.7 kmh W 8.3 mph13.4 kmh 30.11 in1019.6 mb 0.00 in0.0 mm 0.00 in0.0 mm 0.00 in0.0 mm
03:10 AM 51.3°F10.7°C 48.1°F8.9°C 89% 3.3 mph W5.3 kmh W 6.9 mph11.1 kmh 30.11 in1019.6 mb 0.00 in0.0 mm 0.00 in0.0 mm 0.00 in0.0 mm
03:05 AM 51.1°F10.6°C 48.0°F8.9°C 89% 3.4 mph W5.5 kmh W 4.5 mph7.2 kmh 30.11 in1019.6 mb 0.00 in0.0 mm 0.00 in0.0 mm 0.00 in0.0 mm
03:00 AM 51.3°F10.7°C 48.1°F8.9°C 89% 4.2 mph W6.8 kmh W 8.3 mph13.4 kmh 30.11 in1019.6 mb 0.00 in0.0 mm 0.00 in0.0 mm 0.00 in0.0 mm
02:55 AM 51.3°F10.7°C 48.1°F8.9°C 89% 3.5 mph W5.6 kmh W 8.3 mph13.4 kmh 30.11 in1019.6 mb 0.00 in0.0 mm 0.00 in0.0 mm 0.00 in0.0 mm
02:50 AM 51.3°F10.7°C 48.1°F8.9°C 89% 2.2 mph W3.5 kmh W 4.5 mph7.2 kmh 30.11 in1019.6 mb 0.00 in0.0 mm 0.00 in0.0 mm 0.00 in0.0 mm
02:45 AM 51.3°F10.7°C 48.4°F9.1°C 90% 2.9 mph W4.7 kmh W 6.9 mph11.1 kmh 30.11 in1019.6 mb 0.00 in0.0 mm 0.00 in0.0 mm 0.00 in0.0 mm
02:40 AM 51.3°F10.7°C 48.4°F9.1°C 90% 3.8 mph W6.1 kmh W 6.9 mph11.1 kmh 30.12 in1020.0 mb 0.00 in0.0 mm 0.00 in0.0 mm 0.00 in0.0 mm
02:35 AM 51.3°F10.7°C 48.4°F9.1°C 90% 3.7 mph W6.0 kmh W 5.4 mph8.7 kmh 30.12 in1020.0 mb 0.00 in0.0 mm 0.00 in0.0 mm 0.00 in0.0 mm
02:30 AM 51.3°F10.7°C 48.4°F9.1°C 90% 4.4 mph W7.1 kmh W 6.9 mph11.1 kmh 30.12 in1020.0 mb 0.00 in0.0 mm 0.00 in0.0 mm 0.00 in0.0 mm
02:25 AM 51.1°F10.6°C 48.5°F9.2°C 91% 5.1 mph W8.2 kmh W 8.3 mph13.4 kmh 30.13 in1020.3 mb 0.00 in0.0 mm 0.00 in0.0 mm 0.00 in0.0 mm
02:20 AM 51.1°F10.6°C 48.5°F9.2°C 91% 4.4 mph W7.1 kmh W 8.3 mph13.4 kmh 30.12 in1020.0 mb 0.00 in0.0 mm 0.00 in0.0 mm 0.00 in0.0 mm
02:15 AM 51.1°F10.6°C 48.8°F9.3°C 92% 4.2 mph W6.8 kmh W 6.0 mph9.7 kmh 30.12 in1020.0 mb 0.00 in0.0 mm 0.00 in0.0 mm 0.00 in0.0 mm
02:10 AM 51.1°F10.6°C 48.8°F9.3°C 92% 4.6 mph W7.4 kmh W 6.9 mph11.1 kmh 30.12 in1020.0 mb 0.00 in0.0 mm 0.00 in0.0 mm 0.00 in0.0 mm
02:05 AM 50.9°F10.5°C 48.7°F9.3°C 92% 3.8 mph W6.1 kmh W 6.9 mph11.1 kmh 30.11 in1019.6 mb 0.00 in0.0 mm 0.00 in0.0 mm 0.00 in0.0 mm
02:00 AM 50.9°F10.5°C 49.0°F9.4°C 93% 4.1 mph W6.6 kmh W 9.2 mph14.8 kmh 30.13 in1020.3 mb 0.00 in0.0 mm 0.00 in0.0 mm 0.00 in0.0 mm
01:55 AM 50.9°F10.5°C 49.0°F9.4°C 93% 5.2 mph W8.4 kmh W 9.2 mph14.8 kmh 30.13 in1020.3 mb 0.00 in0.0 mm 0.00 in0.0 mm 0.00 in0.0 mm
01:50 AM 50.7°F10.4°C 49.1°F9.5°C 94% 5.1 mph W8.2 kmh W 8.3 mph13.4 kmh 30.13 in1020.3 mb 0.00 in0.0 mm 0.00 in0.0 mm 0.00 in0.0 mm
01:45 AM 50.7°F10.4°C 49.1°F9.5°C 94% 4.3 mph W6.9 kmh W 8.3 mph13.4 kmh 30.13 in1020.3 mb 0.00 in0.0 mm 0.00 in0.0 mm 0.00 in0.0 mm
01:40 AM 50.7°F10.4°C 49.3°F9.6°C 95% 4.8 mph W7.7 kmh W 8.3 mph13.4 kmh 30.13 in1020.3 mb 0.00 in0.0 mm 0.00 in0.0 mm 0.00 in0.0 mm
01:35 AM 50.5°F10.3°C 49.2°F9.6°C 95% 5.5 mph W8.9 kmh W 8.3 mph13.4 kmh 30.13 in1020.3 mb 0.00 in0.0 mm 0.00 in0.0 mm 0.00 in0.0 mm
01:30 AM 50.5°F10.3°C 49.4°F9.7°C 96% 4.2 mph W6.8 kmh W 7.6 mph12.2 kmh 30.13 in1020.3 mb 0.00 in0.0 mm 0.00 in0.0 mm 0.00 in0.0 mm
01:25 AM 50.5°F10.3°C 49.4°F9.7°C 96% 3.4 mph W5.5 kmh W 5.4 mph8.7 kmh 30.13 in1020.3 mb 0.00 in0.0 mm 0.00 in0.0 mm 0.00 in0.0 mm
01:20 AM 50.4°F10.2°C 49.3°F9.6°C 96% 2.9 mph W4.7 kmh W 5.4 mph8.7 kmh 30.14 in1020.7 mb 0.00 in0.0 mm 0.00 in0.0 mm 0.00 in0.0 mm
01:15 AM 50.4°F10.2°C 49.5°F9.7°C 97% 2.1 mph W3.4 kmh W 3.8 mph6.1 kmh 30.14 in1020.7 mb 0.00 in0.0 mm 0.00 in0.0 mm 0.00 in0.0 mm
01:10 AM 50.4°F10.2°C 49.5°F9.7°C 97% 2.0 mph W3.2 kmh W 3.1 mph5.0 kmh 30.14 in1020.7 mb 0.00 in0.0 mm 0.00 in0.0 mm 0.00 in0.0 mm
01:05 AM 50.5°F10.3°C 49.7°F9.8°C 97% 2.7 mph W4.3 kmh W 6.0 mph9.7 kmh 30.14 in1020.7 mb 0.00 in0.0 mm 0.00 in0.0 mm 0.00 in0.0 mm
01:00 AM 50.5°F10.3°C 49.7°F9.8°C 97% 4.2 mph W6.8 kmh W 7.6 mph12.2 kmh 30.14 in1020.7 mb 0.00 in0.0 mm 0.00 in0.0 mm 0.00 in0.0 mm
12:55 AM 50.4°F10.2°C 49.8°F9.9°C 98% 3.6 mph W5.8 kmh W 7.6 mph12.2 kmh 30.13 in1020.3 mb 0.00 in0.0 mm 0.00 in0.0 mm 0.00 in0.0 mm
12:50 AM 50.4°F10.2°C 49.8°F9.9°C 98% 3.1 mph W5.0 kmh W 6.0 mph9.7 kmh 30.13 in1020.3 mb 0.00 in0.0 mm 0.00 in0.0 mm 0.00 in0.0 mm
12:45 AM 50.4°F10.2°C 50.1°F10.1°C 99% 4.6 mph W7.4 kmh W 6.0 mph9.7 kmh 30.13 in1020.3 mb 0.00 in0.0 mm 0.00 in0.0 mm 0.00 in0.0 mm
12:40 AM 50.4°F10.2°C 50.1°F10.1°C 99% 4.6 mph W7.4 kmh W 9.2 mph14.8 kmh 30.13 in1020.3 mb 0.00 in0.0 mm 0.00 in0.0 mm 0.00 in0.0 mm
12:35 AM 50.2°F10.1°C 49.9°F9.9°C 99% 4.9 mph W7.9 kmh W 9.2 mph14.8 kmh 30.13 in1020.3 mb 0.00 in0.0 mm 0.00 in0.0 mm 0.00 in0.0 mm
12:30 AM 50.0°F10.0°C 49.7°F9.8°C 99% 4.4 mph W7.1 kmh W 8.3 mph13.4 kmh 30.13 in1020.3 mb 0.00 in0.0 mm 0.00 in0.0 mm 0.00 in0.0 mm
12:25 AM 50.0°F10.0°C 49.7°F9.8°C 99% 3.1 mph W5.0 kmh W 4.5 mph7.2 kmh 30.12 in1020.0 mb 0.00 in0.0 mm 0.00 in0.0 mm 0.00 in0.0 mm
12:20 AM 50.0°F10.0°C 49.7°F9.8°C 99% 2.9 mph W4.7 kmh W 5.4 mph8.7 kmh 30.12 in1020.0 mb 0.00 in0.0 mm 0.00 in0.0 mm 0.00 in0.0 mm
12:15 AM 50.0°F10.0°C 49.7°F9.8°C 99% 2.4 mph W3.9 kmh W 5.4 mph8.7 kmh 30.12 in1020.0 mb 0.00 in0.0 mm 0.00 in0.0 mm 0.00 in0.0 mm
12:10 AM 50.0°F10.0°C 49.7°F9.8°C 99% 3.2 mph W5.1 kmh W 6.9 mph11.1 kmh 30.12 in1020.0 mb 0.00 in0.0 mm 0.00 in0.0 mm 0.00 in0.0 mm
12:05 AM 50.0°F10.0°C 49.7°F9.8°C 99% 3.7 mph W6.0 kmh W 6.9 mph11.1 kmh 30.12 in1020.0 mb 0.00 in0.0 mm 0.00 in0.0 mm 0.00 in0.0 mm
12:00 AM 49.8°F9.9°C 49.6°F9.8°C 99% 3.3 mph W5.3 kmh W 5.4 mph8.7 kmh 30.12 in1020.0 mb 0.00 in0.0 mm 0.00 in0.0 mm 0.00 in0.0 mm